< < Back
Terminal Aerodrome Forecast


Current Version              Previous Versions:   1  2  3  4  5  6  7  8  9  

Terminal Aerodrome Forecast

392
FTUS42 KGSP 022332
TAFAVL
TAF
KAVL 022332Z 0300/0324 33003KT P6SM FEW090
      TEMPO 0310/0312 4SM BR
     FM031500 33006KT P6SM FEW050=



Latest METAR

455
SAUS70 KWBC 030000 RRF
MTRAVL
METAR KAVL 022354Z 17004KT 10SM SCT080 27/14 A3000 RMK AO2 SLP133
T02720139 10306 20272 55004


USA.gov is the U.S. government's official web portal to all federal, state and local government web resources and services.